createdAt,value
2023-02-28T14:19:01.164Z,102846.00
2023-02-28T14:21:36.813Z,102881.00
2023-02-28T14:24:52.213Z,102866.00
2023-02-28T14:27:35.941Z,102866.00
2023-02-28T14:30:55.109Z,102885.00
2023-02-28T14:33:41.113Z,102859.00
2023-02-28T14:36:19.859Z,102859.00
2023-02-28T14:38:53.060Z,102882.00
2023-02-28T14:41:32.790Z,102863.00
2023-02-28T14:44:04.192Z,102886.00
2023-02-28T14:46:41.211Z,102879.00
2023-02-28T14:49:27.061Z,102830.00
2023-02-28T14:52:10.655Z,102840.00
2023-02-28T14:54:39.666Z,102856.00
2023-02-28T14:57:21.917Z,102845.00
2023-02-28T15:00:02.885Z,102857.00
2023-02-28T15:02:36.457Z,102859.00
2023-02-28T15:05:31.895Z,102860.00
2023-02-28T15:08:08.367Z,102848.00
2023-02-28T15:10:37.288Z,102823.00
2023-02-28T15:13:09.751Z,102863.00
2023-02-28T15:16:01.974Z,102782.00
2023-02-28T15:18:40.771Z,102834.00
2023-02-28T15:21:18.931Z,102853.00
2023-02-28T15:23:51.543Z,102837.00
2023-02-28T15:26:23.960Z,102830.00
2023-02-28T15:29:00.431Z,102846.00
2023-02-28T15:31:43.795Z,102760.00
2023-02-28T15:34:28.524Z,102846.00
2023-02-28T15:37:25.093Z,102836.00
2023-02-28T15:39:54.797Z,102820.00
2023-02-28T15:42:25.790Z,102835.00
2023-02-28T15:44:54.639Z,102831.00
2023-02-28T15:47:25.834Z,102835.00
2023-02-28T15:49:57.209Z,102832.00
2023-02-28T15:52:32.808Z,102872.00
2023-02-28T15:55:01.608Z,102858.00
2023-02-28T15:57:31.985Z,102855.00
2023-02-28T16:00:06.814Z,102868.00
2023-02-28T16:02:37.016Z,102858.00
2023-02-28T16:05:29.259Z,102799.00
2023-02-28T16:08:04.628Z,102856.00
2023-02-28T16:10:33.710Z,102795.00
2023-02-28T16:13:05.670Z,102820.00
2023-02-28T16:15:42.515Z,102822.00
2023-02-28T16:18:13.172Z,102849.00
2023-02-28T16:20:42.495Z,102854.00
2023-02-28T16:23:12.436Z,102838.00
2023-02-28T16:25:43.861Z,102853.00
2023-02-28T16:28:22.171Z,102859.00
2023-02-28T16:30:53.674Z,102797.00
2023-02-28T16:33:22.213Z,102865.00
2023-02-28T16:35:51.318Z,102845.00
2023-02-28T16:38:22.777Z,102877.00
2023-02-28T16:40:53.522Z,102874.00
2023-02-28T16:43:26.458Z,102858.00
2023-02-28T16:46:01.103Z,102871.00
2023-02-28T16:48:31.945Z,102834.00
2023-02-28T16:51:00.236Z,102867.00
2023-02-28T16:53:31.128Z,102826.00
2023-02-28T16:55:59.563Z,102843.00
2023-02-28T16:58:28.616Z,102821.00
2023-02-28T17:00:57.417Z,102797.00
2023-02-28T17:03:33.500Z,102847.00
2023-02-28T17:06:02.827Z,102854.00
2023-02-28T17:08:33.376Z,102849.00
2023-02-28T17:11:02.631Z,102860.00
2023-02-28T17:13:31.071Z,102875.00
2023-02-28T17:15:59.576Z,102860.00
2023-02-28T17:18:34.541Z,102860.00
2023-02-28T17:21:03.039Z,102847.00
2023-02-28T17:23:32.965Z,102859.00
2023-02-28T17:26:05.049Z,102859.00
2023-02-28T17:28:33.430Z,102856.00
2023-02-28T17:31:01.956Z,102823.00
2023-02-28T17:33:30.268Z,102826.00
2023-02-28T17:35:58.947Z,102883.00
2023-02-28T17:38:27.342Z,102874.00
2023-02-28T17:40:58.233Z,102836.00
2023-02-28T17:43:28.464Z,102870.00
2023-02-28T17:45:59.415Z,102882.00
2023-02-28T17:48:30.319Z,102899.00
2023-02-28T17:50:59.190Z,102834.00
2023-02-28T17:53:30.580Z,102883.00
2023-02-28T17:56:00.417Z,102879.00
2023-02-28T17:58:32.653Z,102873.00
2023-02-28T18:01:01.657Z,102819.00
2023-02-28T18:03:31.847Z,102912.00
2023-02-28T18:06:01.400Z,102885.00
2023-02-28T18:08:31.969Z,102905.00
2023-02-28T18:11:02.189Z,102858.00
2023-02-28T18:13:31.100Z,102885.00
2023-02-28T18:15:59.565Z,102882.00
2023-02-28T18:18:29.716Z,102808.00
2023-02-28T18:21:10.262Z,102878.00
2023-02-28T18:23:48.173Z,102920.00
2023-02-28T18:26:19.967Z,102906.00
2023-02-28T18:28:49.504Z,102913.00
2023-02-28T18:31:21.021Z,102860.00
2023-02-28T18:33:52.681Z,102889.00
2023-02-28T18:36:24.361Z,102844.00
2023-02-28T18:39:11.779Z,102886.00
2023-02-28T18:41:42.721Z,102890.00
2023-02-28T18:44:20.931Z,102910.00
2023-02-28T18:47:01.980Z,102875.00
2023-02-28T18:49:31.231Z,102869.00
2023-02-28T18:52:00.581Z,102871.00
2023-02-28T18:54:30.384Z,102872.00
2023-02-28T18:57:00.872Z,102856.00
2023-02-28T18:59:29.450Z,102820.00
2023-02-28T19:01:58.649Z,102848.00
2023-02-28T19:04:35.362Z,102856.00
2023-02-28T19:07:03.986Z,102867.00
2023-02-28T19:09:40.218Z,102844.00
2023-02-28T19:12:11.110Z,102904.00
2023-02-28T19:14:39.844Z,102818.00
2023-02-28T19:17:08.512Z,102858.00
2023-02-28T19:19:37.037Z,102873.00
2023-02-28T19:22:05.627Z,102908.00
2023-02-28T19:24:34.393Z,102909.00
2023-02-28T19:27:02.977Z,102887.00
2023-02-28T19:29:41.626Z,102848.00
2023-02-28T19:32:15.600Z,102879.00
2023-02-28T19:34:51.814Z,102865.00
2023-02-28T19:37:21.193Z,102907.00
2023-02-28T19:39:50.011Z,102915.00
2023-02-28T19:42:20.280Z,102878.00
2023-02-28T19:44:50.336Z,102908.00
2023-02-28T19:47:25.188Z,102873.00
2023-02-28T19:49:54.907Z,102895.00
2023-02-28T19:52:23.853Z,102898.00
2023-02-28T19:54:52.701Z,102898.00
2023-02-28T19:57:21.318Z,102899.00
2023-02-28T19:59:52.098Z,102900.00
2023-02-28T20:02:23.433Z,102890.00
2023-02-28T20:04:54.342Z,102888.00
2023-02-28T20:07:22.928Z,102902.00
2023-02-28T20:09:51.504Z,102923.00
2023-02-28T20:12:24.380Z,102913.00
2023-02-28T20:14:56.879Z,102882.00
2023-02-28T20:17:25.775Z,102915.00
2023-02-28T20:19:54.314Z,102886.00
2023-02-28T20:22:22.778Z,102860.00
2023-02-28T20:24:54.803Z,102916.00
2023-02-28T20:27:23.202Z,102887.00
2023-02-28T20:29:53.347Z,102896.00
2023-02-28T20:32:21.836Z,102908.00
2023-02-28T20:34:50.304Z,102932.00
2023-02-28T20:37:18.856Z,102942.00
2023-02-28T20:39:48.583Z,102862.00
2023-02-28T20:42:17.517Z,102853.00
2023-02-28T20:44:46.166Z,102925.00
2023-02-28T20:47:16.213Z,102906.00
2023-02-28T20:49:44.673Z,102939.00
2023-02-28T20:52:15.694Z,102910.00
2023-02-28T20:54:44.629Z,102927.00
2023-02-28T20:57:13.020Z,102943.00
2023-02-28T20:59:42.061Z,102881.00
2023-02-28T21:02:13.358Z,102939.00
2023-02-28T21:04:43.419Z,102934.00
2023-02-28T21:07:12.139Z,102925.00
2023-02-28T21:09:40.964Z,102934.00
2023-02-28T21:12:09.512Z,102926.00
2023-02-28T21:14:37.958Z,102889.00
2023-02-28T21:17:10.427Z,102824.00
2023-02-28T21:19:39.127Z,102905.00
2023-02-28T21:22:08.951Z,102941.00
2023-02-28T21:24:37.706Z,102943.00
2023-02-28T21:27:06.065Z,102901.00
2023-02-28T21:29:34.498Z,102908.00
2023-02-28T21:32:02.884Z,102906.00
2023-02-28T21:34:31.406Z,102941.00
2023-02-28T21:36:59.777Z,102916.00
2023-02-28T21:39:30.146Z,102912.00
2023-02-28T21:42:03.411Z,102902.00
2023-02-28T21:44:32.569Z,102865.00
2023-02-28T21:47:03.977Z,102865.00
2023-02-28T21:49:32.504Z,102927.00
2023-02-28T21:52:01.150Z,102905.00
2023-02-28T21:54:30.825Z,102927.00
2023-02-28T21:56:59.801Z,102883.00
2023-02-28T21:59:28.683Z,102931.00
2023-02-28T22:01:57.058Z,102881.00
2023-02-28T22:04:25.457Z,102934.00
2023-02-28T22:06:57.245Z,102898.00
2023-02-28T22:09:26.245Z,102866.00
2023-02-28T22:11:56.412Z,102915.00
2023-02-28T22:14:32.513Z,102908.00
2023-02-28T22:17:01.022Z,102875.00
2023-02-28T22:19:29.545Z,102907.00
2023-02-28T22:21:58.752Z,102912.00
2023-02-28T22:24:27.528Z,102928.00
2023-02-28T22:26:57.246Z,102880.00
2023-02-28T22:29:25.740Z,102941.00
2023-02-28T22:31:54.715Z,102940.00
2023-02-28T22:34:23.061Z,102932.00
2023-02-28T22:36:51.899Z,102939.00
2023-02-28T22:39:21.001Z,102920.00
2023-02-28T22:41:49.399Z,102904.00
2023-02-28T22:44:19.276Z,102913.00
2023-02-28T22:46:47.644Z,102876.00
2023-02-28T22:49:16.340Z,102891.00
2023-02-28T22:51:45.081Z,102954.00
2023-02-28T22:54:13.358Z,102888.00
2023-02-28T22:56:41.622Z,102945.00
2023-02-28T22:59:11.949Z,102910.00
2023-02-28T23:01:43.905Z,102889.00
2023-02-28T23:04:13.030Z,102946.00
2023-02-28T23:06:44.240Z,102950.00
2023-02-28T23:09:17.688Z,102929.00
2023-02-28T23:11:49.220Z,102915.00
2023-02-28T23:14:19.439Z,102961.00
2023-02-28T23:16:51.521Z,102961.00
2023-02-28T23:19:22.466Z,102958.00
2023-02-28T23:21:51.451Z,102939.00
2023-02-28T23:24:24.299Z,102945.00
2023-02-28T23:26:56.172Z,102955.00
2023-02-28T23:29:28.735Z,102955.00
2023-02-28T23:31:58.923Z,102960.00
2023-02-28T23:34:30.484Z,102916.00
2023-02-28T23:37:01.288Z,102955.00
2023-02-28T23:39:31.686Z,102890.00
2023-02-28T23:42:00.269Z,102909.00
2023-02-28T23:44:28.884Z,102906.00
2023-02-28T23:46:58.621Z,102917.00
2023-02-28T23:49:27.008Z,102883.00
2023-02-28T23:51:55.924Z,102936.00
2023-02-28T23:54:26.518Z,102958.00
2023-02-28T23:56:55.144Z,102923.00
2023-02-28T23:59:23.684Z,102927.00
